Allingtown, Connecticut
Current Conditions -  °F | °C
As of 4:53 PM on Saturday 25 Oct 2014 (Local Time) from KHVN Reporting Station
Few Clouds Few Clouds  
Wind Chill: 18°   Ceiling: Unl
Heat Index: 18°   Visibility: 10mi
Dew Point:   Wind: 9mph
Humidity: 56%   Direction: 220°SW
Pressure: 29.65"   Gusts: 17mph
Location:  41.2716°N, 72.9666°W
Report Text: KHVN 252053Z 22008G15KT 10SM FEW250 18/09 A2965 RMK AO2 SLP038 T01830094 56020
Loading
Personal Weather Stations






























Interactive Weather Map
Tropical Storm Tracking
New forecast layout! Learn more

10-Day Weather Forecast

Advertisements
Track Severe Weather on mobile